createdAt,value
2018-12-03T00:00:35.537Z,3.50
2018-12-03T00:03:05.156Z,2.73
2018-12-03T00:05:33.680Z,4.07
2018-12-03T00:08:02.211Z,4.10
2018-12-03T00:10:30.759Z,3.00
2018-12-03T00:12:59.226Z,5.37
2018-12-03T00:15:27.825Z,4.43
2018-12-03T00:17:56.381Z,4.33
2018-12-03T00:20:24.954Z,5.57
2018-12-03T00:22:53.460Z,3.37
2018-12-03T00:25:22.009Z,7.77
2018-12-03T00:27:53.199Z,4.87
2018-12-03T00:30:21.797Z,3.57
2018-12-03T00:32:50.741Z,8.03
2018-12-03T00:35:19.255Z,6.40
2018-12-03T00:37:47.744Z,4.63
2018-12-03T00:40:16.244Z,6.83
2018-12-03T00:42:44.836Z,3.33
2018-12-03T00:45:13.356Z,4.60
2018-12-03T00:47:41.843Z,3.50
2018-12-03T00:50:10.363Z,6.03
2018-12-03T00:52:38.840Z,5.27
2018-12-03T00:55:08.020Z,5.70
2018-12-03T00:57:36.572Z,6.30
2018-12-03T01:00:07.392Z,5.70
2018-12-03T01:02:35.874Z,6.70
2018-12-03T01:05:04.767Z,4.90
2018-12-03T01:07:33.352Z,6.67
2018-12-03T01:10:01.881Z,9.97
2018-12-03T01:12:30.399Z,9.33
2018-12-03T01:14:58.946Z,6.30
2018-12-03T01:17:27.441Z,6.43
2018-12-03T01:19:55.948Z,6.53
2018-12-03T01:22:24.463Z,6.40
2018-12-03T01:24:52.965Z,8.13
2018-12-03T01:27:21.496Z,4.10
2018-12-03T01:29:49.985Z,6.67
2018-12-03T01:32:18.522Z,8.83
2018-12-03T01:34:47.055Z,11.63
2018-12-03T01:37:15.547Z,9.53
2018-12-03T01:39:44.074Z,7.07
2018-12-03T01:42:12.552Z,4.00
2018-12-03T01:44:41.046Z,5.47
2018-12-03T01:47:09.544Z,5.20
2018-12-03T01:49:38.108Z,5.33
2018-12-03T01:52:06.746Z,6.63
2018-12-03T01:54:35.436Z,4.20
2018-12-03T01:57:04.005Z,4.10
2018-12-03T01:59:32.482Z,6.23
2018-12-03T02:02:00.987Z,9.13
2018-12-03T02:04:29.480Z,3.87
2018-12-03T02:06:58.013Z,3.70
2018-12-03T02:09:26.584Z,5.10
2018-12-03T02:11:55.087Z,4.17
2018-12-03T02:14:23.560Z,5.50
2018-12-03T02:16:52.137Z,5.00
2018-12-03T02:19:20.620Z,6.07
2018-12-03T02:21:49.180Z,6.33
2018-12-03T02:24:17.734Z,3.53
2018-12-03T02:26:46.357Z,8.47
2018-12-03T02:29:14.895Z,5.90
2018-12-03T02:31:43.388Z,4.37
2018-12-03T02:34:11.905Z,8.13
2018-12-03T02:36:40.612Z,4.43
2018-12-03T02:39:09.232Z,7.93
2018-12-03T02:41:37.927Z,8.00
2018-12-03T02:44:06.462Z,6.23
2018-12-03T02:46:34.955Z,7.07
2018-12-03T02:49:03.432Z,8.50
2018-12-03T02:51:31.972Z,3.50
2018-12-03T02:54:00.415Z,3.37
2018-12-03T02:56:28.984Z,5.87
2018-12-03T02:58:57.543Z,6.90
2018-12-03T03:01:26.050Z,4.17
2018-12-03T03:03:54.712Z,7.17
2018-12-03T03:06:23.284Z,4.13
2018-12-03T03:08:51.752Z,3.80
2018-12-03T03:11:20.304Z,2.40
2018-12-03T03:13:48.813Z,2.23
2018-12-03T03:16:17.327Z,1.97
2018-12-03T03:18:45.796Z,2.53
2018-12-03T03:21:14.273Z,0.90
2018-12-03T03:23:42.752Z,2.27
2018-12-03T03:26:11.260Z,1.50
2018-12-03T03:28:39.736Z,1.70
2018-12-03T03:31:08.255Z,2.10
2018-12-03T03:33:36.755Z,2.60
2018-12-03T03:36:05.271Z,10.90
2018-12-03T03:38:34.000Z,3.20
2018-12-03T03:41:02.527Z,4.57
2018-12-03T03:43:31.110Z,2.60
2018-12-03T03:45:59.579Z,3.00
2018-12-03T03:48:28.061Z,3.13
2018-12-03T03:50:56.505Z,3.20
2018-12-03T03:53:24.964Z,2.90
2018-12-03T03:55:53.652Z,8.43
2018-12-03T03:58:22.141Z,1.50
2018-12-03T04:00:50.607Z,2.07
2018-12-03T04:03:19.087Z,1.27
2018-12-03T04:05:47.566Z,1.80
2018-12-03T04:08:16.101Z,1.30
2018-12-03T04:10:44.622Z,3.20
2018-12-03T04:13:13.167Z,2.10
2018-12-03T04:15:41.703Z,1.00
2018-12-03T04:18:10.195Z,1.30
2018-12-03T04:20:38.670Z,2.30
2018-12-03T04:23:07.252Z,2.10
2018-12-03T04:25:35.697Z,1.57
2018-12-03T04:28:04.244Z,1.20
2018-12-03T04:30:32.691Z,1.13
2018-12-03T04:33:01.182Z,1.30
2018-12-03T04:35:29.630Z,2.30
2018-12-03T04:37:58.168Z,1.50
2018-12-03T04:40:26.688Z,4.10
2018-12-03T04:42:55.200Z,2.27
2018-12-03T04:45:23.716Z,2.40
2018-12-03T04:47:52.304Z,4.83
2018-12-03T04:50:21.808Z,8.83
2018-12-03T04:52:50.307Z,5.03
2018-12-03T04:55:19.783Z,6.30
2018-12-03T04:57:48.408Z,4.50
2018-12-03T05:00:18.292Z,2.20
2018-12-03T05:02:49.246Z,3.30
2018-12-03T05:05:17.998Z,3.27
2018-12-03T05:07:46.558Z,2.93
2018-12-03T05:10:16.248Z,4.53
2018-12-03T05:12:45.960Z,5.07
2018-12-03T05:15:14.626Z,2.27
2018-12-03T05:17:43.633Z,3.63
2018-12-03T05:20:15.628Z,10.60
2018-12-03T05:22:44.256Z,4.60
2018-12-03T05:25:12.587Z,5.37
2018-12-03T05:27:41.075Z,4.17
2018-12-03T05:30:12.439Z,6.40
2018-12-03T05:32:41.480Z,4.10
2018-12-03T05:35:12.234Z,4.50
2018-12-03T05:37:40.802Z,5.50
2018-12-03T05:40:16.526Z,9.17
2018-12-03T05:42:45.286Z,9.33
2018-12-03T05:45:13.830Z,8.00
2018-12-03T05:47:42.366Z,6.07
2018-12-03T05:50:13.773Z,20.37
2018-12-03T05:52:45.291Z,22.63
2018-12-03T05:55:14.232Z,16.47
2018-12-03T05:57:43.073Z,5.57
2018-12-03T06:00:15.903Z,10.70
2018-12-03T06:02:44.411Z,7.60
2018-12-03T06:05:13.752Z,7.47
2018-12-03T06:07:42.283Z,13.83
2018-12-03T06:10:15.201Z,7.03
2018-12-03T06:12:43.749Z,5.60
2018-12-03T06:15:13.187Z,6.83
2018-12-03T06:17:41.716Z,4.80
2018-12-03T06:20:15.329Z,10.30
2018-12-03T06:22:43.870Z,4.43
2018-12-03T06:25:14.500Z,4.70
2018-12-03T06:27:42.957Z,5.10
2018-12-03T06:30:15.490Z,7.47
2018-12-03T06:32:43.998Z,7.90
2018-12-03T06:35:13.626Z,6.97
2018-12-03T06:37:42.149Z,8.77
2018-12-03T06:40:17.569Z,8.17
2018-12-03T06:42:46.070Z,4.13
2018-12-03T06:45:16.688Z,8.67
2018-12-03T06:47:50.127Z,7.03
2018-12-03T06:50:18.639Z,7.47
2018-12-03T06:52:47.106Z,10.17
2018-12-03T06:55:15.658Z,7.90
2018-12-03T06:57:44.236Z,9.03
2018-12-03T07:00:14.911Z,12.43
2018-12-03T07:02:43.935Z,11.40
2018-12-03T07:05:12.546Z,10.33
2018-12-03T07:07:41.874Z,8.07
2018-12-03T07:10:12.897Z,8.30
2018-12-03T07:12:41.558Z,7.63
2018-12-03T07:15:11.431Z,15.47
2018-12-03T07:17:39.929Z,8.33
2018-12-03T07:20:11.084Z,16.70
2018-12-03T07:22:39.935Z,8.47
2018-12-03T07:25:10.381Z,7.73
2018-12-03T07:27:39.019Z,13.67
2018-12-03T07:30:22.595Z,12.67
2018-12-03T07:32:51.648Z,12.50
2018-12-03T07:35:20.835Z,9.00
2018-12-03T07:37:50.491Z,9.47
2018-12-03T07:40:18.934Z,12.33
2018-12-03T07:42:47.405Z,10.23
2018-12-03T07:45:19.106Z,12.90
2018-12-03T07:47:47.613Z,10.63
2018-12-03T07:50:17.232Z,8.60
2018-12-03T07:52:45.793Z,13.37
2018-12-03T07:55:15.505Z,15.07
2018-12-03T07:58:18.629Z,4.20
2018-12-03T08:00:49.723Z,10.80
2018-12-03T08:03:18.209Z,9.33
2018-12-03T08:05:47.413Z,10.20
2018-12-03T08:08:15.208Z,10.90
2018-12-03T08:10:49.622Z,8.60
2018-12-03T08:13:18.894Z,8.53
2018-12-03T08:15:47.373Z,9.53
2018-12-03T08:18:17.480Z,10.83
2018-12-03T08:21:05.353Z,5.70
2018-12-03T08:23:47.283Z,9.77
2018-12-03T08:26:22.537Z,12.00
2018-12-03T08:28:51.034Z,7.10
2018-12-03T08:31:19.520Z,10.47
2018-12-03T08:33:47.997Z,6.93
2018-12-03T08:36:16.512Z,6.50
2018-12-03T08:38:44.989Z,10.03
2018-12-03T08:41:13.456Z,14.80
2018-12-03T08:43:42.026Z,6.67
2018-12-03T08:46:11.109Z,10.50
2018-12-03T08:48:40.896Z,9.63
2018-12-03T08:51:10.315Z,10.87
2018-12-03T08:53:38.871Z,9.53
2018-12-03T08:56:07.559Z,13.53
2018-12-03T08:58:36.048Z,14.27
2018-12-03T09:01:09.340Z,8.47
2018-12-03T09:03:37.800Z,9.87
2018-12-03T09:06:09.356Z,9.80
2018-12-03T09:08:37.891Z,12.90
2018-12-03T09:11:08.993Z,5.53
2018-12-03T09:13:37.502Z,6.20
2018-12-03T09:16:06.064Z,11.37
2018-12-03T09:18:39.090Z,9.73
2018-12-03T09:21:10.415Z,7.80
2018-12-03T09:23:39.292Z,9.37
2018-12-03T09:26:08.694Z,7.30
2018-12-03T09:28:38.298Z,9.63
2018-12-03T09:31:07.119Z,6.87
2018-12-03T09:33:36.175Z,15.07
2018-12-03T09:36:05.244Z,16.77
2018-12-03T09:38:43.808Z,8.93
2018-12-03T09:41:12.983Z,15.60
2018-12-03T09:43:43.507Z,12.27
2018-12-03T09:46:12.104Z,10.50
2018-12-03T09:48:40.576Z,13.47
2018-12-03T09:51:08.855Z,11.50
2018-12-03T09:53:37.305Z,13.07
2018-12-03T09:56:06.504Z,10.87
2018-12-03T09:58:34.970Z,10.50
2018-12-03T10:01:03.578Z,13.07
2018-12-03T10:03:38.228Z,19.60
2018-12-03T10:06:11.784Z,14.23
2018-12-03T10:08:40.203Z,9.20
2018-12-03T10:11:09.610Z,13.93
2018-12-03T10:13:38.055Z,17.37
2018-12-03T10:16:06.880Z,9.40
2018-12-03T10:18:35.339Z,12.97
2018-12-03T10:21:03.822Z,15.67
2018-12-03T10:23:32.288Z,11.57
2018-12-03T10:26:01.264Z,20.80
2018-12-03T10:28:29.822Z,9.43
2018-12-03T10:30:58.727Z,9.93
2018-12-03T10:33:30.892Z,10.00
2018-12-03T10:36:00.797Z,10.43
2018-12-03T10:38:32.167Z,9.50
2018-12-03T10:41:03.099Z,18.93
2018-12-03T10:43:31.576Z,15.43
2018-12-03T10:46:00.054Z,15.97
2018-12-03T10:48:28.554Z,12.60
2018-12-03T10:50:57.124Z,8.73
2018-12-03T10:53:27.357Z,10.83
2018-12-03T10:55:55.964Z,10.90
2018-12-03T10:58:24.471Z,15.73
2018-12-03T11:01:04.147Z,14.43
2018-12-03T11:03:37.873Z,13.07
2018-12-03T11:06:12.041Z,12.80
2018-12-03T11:08:40.588Z,15.83
2018-12-03T11:11:09.112Z,9.63
2018-12-03T11:13:37.603Z,8.60
2018-12-03T11:16:08.159Z,14.83
2018-12-03T11:18:50.578Z,20.47
2018-12-03T11:21:19.068Z,15.93
2018-12-03T11:23:47.544Z,12.50
2018-12-03T11:26:16.023Z,17.63
2018-12-03T11:28:46.945Z,21.27
2018-12-03T11:31:24.269Z,16.10
2018-12-03T11:33:52.736Z,18.17
2018-12-03T11:36:25.190Z,11.10
2018-12-03T11:40:02.845Z,14.57
2018-12-03T11:42:34.848Z,14.00
2018-12-03T11:45:03.410Z,14.40
2018-12-03T11:47:31.875Z,9.83
2018-12-03T11:50:00.402Z,11.80
2018-12-03T11:52:28.951Z,22.03
2018-12-03T11:54:57.440Z,13.60
2018-12-03T11:57:26.311Z,18.67
2018-12-03T11:59:54.783Z,15.03
2018-12-03T12:02:23.268Z,22.87
2018-12-03T12:04:51.713Z,10.17
2018-12-03T12:07:20.189Z,11.47
2018-12-03T12:09:48.654Z,15.70
2018-12-03T12:12:17.134Z,9.57
2018-12-03T12:14:45.580Z,14.93
2018-12-03T12:17:14.060Z,9.70
2018-12-03T12:19:42.577Z,6.50
2018-12-03T12:22:11.035Z,6.73
2018-12-03T12:24:39.516Z,7.97
2018-12-03T12:27:09.093Z,8.07
2018-12-03T12:29:37.558Z,5.70
2018-12-03T12:32:06.152Z,10.00
2018-12-03T12:34:34.683Z,9.10
2018-12-03T12:37:03.132Z,7.40
2018-12-03T12:39:31.624Z,7.33
2018-12-03T12:42:00.063Z,4.63
2018-12-03T12:44:28.667Z,6.80
2018-12-03T12:46:57.117Z,6.93
2018-12-03T12:49:25.648Z,6.90
2018-12-03T12:51:54.155Z,14.83
2018-12-03T12:54:22.647Z,7.87
2018-12-03T12:56:51.116Z,8.77
2018-12-03T12:59:19.611Z,6.00
2018-12-03T13:01:48.260Z,6.13
2018-12-03T13:04:16.739Z,5.07
2018-12-03T13:06:51.809Z,9.73
2018-12-03T13:09:20.331Z,14.13
2018-12-03T13:11:48.815Z,8.63
2018-12-03T13:14:17.265Z,8.03
2018-12-03T13:16:45.787Z,8.50
2018-12-03T13:19:14.247Z,5.80
2018-12-03T13:21:42.828Z,12.70
2018-12-03T13:24:11.355Z,6.60
2018-12-03T13:26:42.124Z,10.13
2018-12-03T13:29:10.671Z,8.13
2018-12-03T13:31:39.148Z,13.10
2018-12-03T13:34:08.493Z,8.10
2018-12-03T13:36:37.012Z,8.37
2018-12-03T13:39:08.570Z,4.00
2018-12-03T13:41:37.055Z,5.80
2018-12-03T13:44:07.107Z,5.30
2018-12-03T13:46:35.640Z,6.93
2018-12-03T13:49:04.233Z,5.00
2018-12-03T13:51:32.768Z,4.13
2018-12-03T13:54:01.319Z,5.80
2018-12-03T13:56:29.862Z,6.80
2018-12-03T13:58:59.497Z,4.07
2018-12-03T14:01:27.958Z,8.60
2018-12-03T14:04:01.651Z,7.87
2018-12-03T14:06:42.090Z,8.80
2018-12-03T14:10:30.585Z,16.23
2018-12-03T14:13:13.717Z,8.43
2018-12-03T14:15:53.440Z,4.90
2018-12-03T14:18:27.321Z,5.13
2018-12-03T14:20:59.993Z,5.70
2018-12-03T14:23:32.679Z,6.40
2018-12-03T14:26:01.142Z,6.97
2018-12-03T14:28:29.655Z,3.87
2018-12-03T14:30:58.169Z,6.13
2018-12-03T14:33:26.733Z,9.30
2018-12-03T14:35:55.287Z,5.10
2018-12-03T14:38:23.748Z,6.00
2018-12-03T14:40:52.626Z,5.27
2018-12-03T14:43:21.111Z,5.47
2018-12-03T14:45:49.575Z,6.83
2018-12-03T14:48:18.061Z,9.13
2018-12-03T14:50:47.724Z,3.33
2018-12-03T14:53:16.284Z,4.47
2018-12-03T14:55:44.761Z,6.27
2018-12-03T14:58:13.259Z,9.73
2018-12-03T15:00:41.873Z,2.73
2018-12-03T15:03:10.374Z,4.20
2018-12-03T15:05:38.867Z,9.57
2018-12-03T15:08:07.389Z,12.97
2018-12-03T15:10:35.855Z,5.60
2018-12-03T15:13:04.348Z,9.57
2018-12-03T15:15:32.784Z,2.50
2018-12-03T15:18:01.246Z,2.83
2018-12-03T15:20:29.739Z,3.37
2018-12-03T15:22:58.612Z,2.67
2018-12-03T15:25:27.071Z,7.97
2018-12-03T15:27:56.382Z,4.03
2018-12-03T15:30:24.875Z,2.20
2018-12-03T15:32:53.359Z,1.70
2018-12-03T15:35:21.844Z,4.47
2018-12-03T15:37:50.289Z,4.00
2018-12-03T15:40:18.773Z,3.27
2018-12-03T15:42:47.288Z,6.70
2018-12-03T15:45:17.396Z,4.23
2018-12-03T15:47:46.571Z,2.00
2018-12-03T15:50:15.064Z,3.57
2018-12-03T15:52:43.597Z,2.50
2018-12-03T15:55:12.186Z,4.83
2018-12-03T15:57:40.731Z,4.40
2018-12-03T16:00:11.405Z,3.80
2018-12-03T16:02:39.920Z,6.50
2018-12-03T16:05:11.315Z,6.43
2018-12-03T16:07:40.691Z,4.03
2018-12-03T16:10:11.607Z,9.13
2018-12-03T16:12:40.118Z,2.93
2018-12-03T16:15:09.398Z,1.30
2018-12-03T16:17:37.861Z,6.33
2018-12-03T16:20:08.176Z,4.07
2018-12-03T16:22:36.642Z,3.57
2018-12-03T16:25:06.845Z,3.57
2018-12-03T16:27:35.352Z,4.00
2018-12-03T16:30:06.533Z,2.27
2018-12-03T16:32:35.021Z,2.50
2018-12-03T16:35:03.635Z,4.20
2018-12-03T16:37:32.496Z,4.17
2018-12-03T16:40:00.995Z,8.43
2018-12-03T16:42:29.513Z,4.47
2018-12-03T16:44:58.021Z,7.17
2018-12-03T16:47:26.623Z,6.20
2018-12-03T16:49:55.112Z,3.23
2018-12-03T16:52:23.623Z,8.47
2018-12-03T16:54:52.148Z,6.00
2018-12-03T16:57:22.637Z,9.60
2018-12-03T16:59:52.177Z,3.70
2018-12-03T17:02:20.721Z,4.10
2018-12-03T17:04:49.211Z,11.40
2018-12-03T17:07:17.678Z,4.27
2018-12-03T17:09:46.298Z,3.93
2018-12-03T17:12:14.750Z,3.93
2018-12-03T17:14:43.267Z,5.30
2018-12-03T17:17:11.772Z,12.43
2018-12-03T17:19:40.322Z,4.73
2018-12-03T17:22:17.319Z,8.53
2018-12-03T17:24:47.035Z,7.60
2018-12-03T17:27:19.694Z,9.80
2018-12-03T17:29:49.060Z,4.70
2018-12-03T17:32:17.572Z,8.00
2018-12-03T17:34:48.851Z,7.90
2018-12-03T17:37:14.615Z,6.83
2018-12-03T17:39:43.459Z,10.33
2018-12-03T17:42:11.955Z,6.93
2018-12-03T17:44:40.439Z,12.63
2018-12-03T17:47:08.883Z,7.10
2018-12-03T17:49:37.352Z,10.60
2018-12-03T17:52:06.016Z,5.33
2018-12-03T17:54:34.479Z,11.07
2018-12-03T17:57:02.956Z,8.63
2018-12-03T17:59:32.239Z,14.63
2018-12-03T18:02:00.697Z,9.17
2018-12-03T18:04:29.187Z,9.10
2018-12-03T18:06:57.659Z,10.07
2018-12-03T18:09:26.160Z,8.97
2018-12-03T18:11:54.649Z,13.03
2018-12-03T18:14:23.134Z,7.13
2018-12-03T18:16:51.642Z,15.07
2018-12-03T18:19:21.074Z,8.23
2018-12-03T18:21:49.579Z,11.57
2018-12-03T18:24:18.036Z,10.47
2018-12-03T18:26:50.431Z,8.03
2018-12-03T18:29:18.872Z,13.23
2018-12-03T18:31:47.364Z,10.83
2018-12-03T18:34:15.853Z,17.90
2018-12-03T18:36:44.344Z,10.00
2018-12-03T18:39:12.843Z,11.67
2018-12-03T18:41:41.301Z,12.80
2018-12-03T18:44:09.836Z,9.63
2018-12-03T18:46:38.329Z,12.23
2018-12-03T18:49:17.531Z,13.37
2018-12-03T18:51:45.996Z,10.33
2018-12-03T18:54:14.492Z,14.40
2018-12-03T18:56:42.963Z,17.00
2018-12-03T18:59:11.495Z,16.30
2018-12-03T19:01:39.990Z,11.67
2018-12-03T19:04:09.073Z,12.57
2018-12-03T19:06:37.579Z,11.47
2018-12-03T19:09:08.086Z,21.50
2018-12-03T19:11:36.631Z,15.60
2018-12-03T19:14:05.120Z,16.03
2018-12-03T19:16:33.593Z,13.63
2018-12-03T19:19:02.079Z,16.13
2018-12-03T19:21:30.999Z,12.03
2018-12-03T19:23:59.483Z,18.53
2018-12-03T19:26:27.959Z,21.70
2018-12-03T19:28:56.435Z,12.27
2018-12-03T19:31:24.886Z,16.40
2018-12-03T19:33:53.386Z,13.03
2018-12-03T19:36:21.852Z,23.30
2018-12-03T19:38:50.506Z,14.27
2018-12-03T19:41:19.055Z,13.90
2018-12-03T19:43:47.601Z,13.27
2018-12-03T19:46:16.140Z,15.53
2018-12-03T19:49:26.068Z,19.70
2018-12-03T19:51:55.668Z,14.10
2018-12-03T19:54:24.100Z,22.93
2018-12-03T19:56:52.610Z,34.07
2018-12-03T19:59:22.491Z,15.80
2018-12-03T20:01:50.927Z,12.43
2018-12-03T20:04:25.722Z,13.10
2018-12-03T20:06:54.168Z,20.93
2018-12-03T20:09:22.649Z,16.20
2018-12-03T20:11:57.679Z,14.83
2018-12-03T20:14:26.370Z,15.87
2018-12-03T20:16:55.276Z,12.50
2018-12-03T20:19:23.847Z,13.27
2018-12-03T20:21:52.807Z,13.27
2018-12-03T20:24:24.445Z,17.93
2018-12-03T20:27:21.452Z,23.03
2018-12-03T20:29:59.762Z,13.37
2018-12-03T20:32:37.618Z,13.00
2018-12-03T20:35:11.185Z,12.77
2018-12-03T20:37:59.995Z,18.17
2018-12-03T20:40:46.215Z,13.23
2018-12-03T20:43:18.662Z,20.67
2018-12-03T20:48:03.932Z,19.50
2018-12-03T20:50:48.298Z,15.47
2018-12-03T20:53:21.363Z,25.00
2018-12-03T20:55:49.899Z,18.23
2018-12-03T20:58:19.202Z,15.10
2018-12-03T21:00:50.730Z,11.37
2018-12-03T21:03:19.147Z,15.23
2018-12-03T21:05:47.596Z,12.60
2018-12-03T21:08:16.148Z,14.00
2018-12-03T21:11:00.280Z,28.40
2018-12-03T21:13:31.127Z,12.90
2018-12-03T21:16:01.343Z,19.17
2018-12-03T21:18:29.793Z,18.17
2018-12-03T21:20:58.250Z,19.37
2018-12-03T21:23:26.655Z,37.13
2018-12-03T21:25:55.112Z,19.57
2018-12-03T21:28:23.526Z,21.90
2018-12-03T21:30:51.948Z,22.80
2018-12-03T21:33:20.402Z,10.37
2018-12-03T21:35:48.827Z,13.40
2018-12-03T21:38:17.718Z,24.17
2018-12-03T21:40:46.157Z,24.90
2018-12-03T21:43:14.629Z,22.57
2018-12-03T21:45:43.080Z,14.60
2018-12-03T21:48:11.552Z,11.63
2018-12-03T21:50:40.095Z,11.27
2018-12-03T21:53:08.560Z,11.03
2018-12-03T21:55:37.057Z,11.30
2018-12-03T21:58:05.639Z,10.10
2018-12-03T22:00:34.766Z,12.13
2018-12-03T22:03:03.336Z,10.67
2018-12-03T22:05:31.846Z,7.90
2018-12-03T22:08:00.372Z,12.40
2018-12-03T22:10:28.893Z,11.37
2018-12-03T22:12:57.359Z,18.00
2018-12-03T22:15:25.787Z,9.80
2018-12-03T22:17:54.272Z,9.43
2018-12-03T22:20:22.700Z,8.70
2018-12-03T22:22:51.247Z,22.33
2018-12-03T22:25:19.685Z,14.73
2018-12-03T22:27:48.146Z,13.10
2018-12-03T22:30:16.605Z,22.00
2018-12-03T22:32:45.108Z,13.67
2018-12-03T22:35:13.546Z,13.70
2018-12-03T22:37:42.016Z,11.50
2018-12-03T22:40:10.548Z,8.80
2018-12-03T22:42:39.010Z,13.40
2018-12-03T22:45:07.836Z,12.90
2018-12-03T22:47:36.297Z,13.73
2018-12-03T22:50:05.276Z,10.97
2018-12-03T22:52:33.780Z,16.27
2018-12-03T22:55:02.269Z,12.17
2018-12-03T22:57:30.756Z,9.90
2018-12-03T22:59:59.234Z,16.87
2018-12-03T23:02:27.711Z,13.03
2018-12-03T23:04:56.172Z,8.13
2018-12-03T23:07:24.653Z,11.50
2018-12-03T23:09:53.108Z,10.97
2018-12-03T23:12:21.700Z,14.33
2018-12-03T23:14:50.194Z,12.50
2018-12-03T23:17:18.706Z,9.20
2018-12-03T23:19:47.132Z,17.40
2018-12-03T23:22:15.628Z,9.53
2018-12-03T23:24:44.132Z,10.63
2018-12-03T23:27:12.623Z,13.30
2018-12-03T23:29:41.116Z,9.43
2018-12-03T23:32:09.576Z,12.53
2018-12-03T23:34:38.070Z,14.40
2018-12-03T23:37:06.577Z,9.07
2018-12-03T23:39:35.044Z,11.97
2018-12-03T23:42:03.505Z,10.40
2018-12-03T23:44:31.951Z,10.90
2018-12-03T23:47:00.424Z,16.87
2018-12-03T23:49:28.877Z,11.67
2018-12-03T23:51:57.369Z,14.17
2018-12-03T23:54:25.837Z,8.60
2018-12-03T23:56:54.293Z,13.83
2018-12-03T23:59:22.757Z,16.77
